createdAt,value
2023-05-10T00:01:49.412Z,15.42
2023-05-10T00:04:21.677Z,15.24
2023-05-10T00:06:48.395Z,15.08
2023-05-10T00:09:14.964Z,15.04
2023-05-10T00:11:43.452Z,14.94
2023-05-10T00:14:10.045Z,14.78
2023-05-10T00:16:36.676Z,14.73
2023-05-10T00:19:03.324Z,14.65
2023-05-10T00:21:30.243Z,14.84
2023-05-10T00:23:56.853Z,15.19
2023-05-10T00:26:23.465Z,15.05
2023-05-10T00:28:55.580Z,14.91
2023-05-10T00:31:22.443Z,14.88
2023-05-10T00:33:49.037Z,14.70
2023-05-10T00:36:15.931Z,14.71
2023-05-10T00:38:42.562Z,14.70
2023-05-10T00:41:09.510Z,14.89
2023-05-10T00:43:38.515Z,14.62
2023-05-10T00:46:05.728Z,14.71
2023-05-10T00:48:32.620Z,14.65
2023-05-10T00:50:59.316Z,14.91
2023-05-10T00:53:25.946Z,14.82
2023-05-10T00:55:52.623Z,14.91
2023-05-10T00:58:19.321Z,14.86
2023-05-10T01:00:49.143Z,14.80
2023-05-10T01:03:15.902Z,14.49
2023-05-10T01:05:42.627Z,14.76
2023-05-10T01:08:09.746Z,14.53
2023-05-10T01:10:38.572Z,14.58
2023-05-10T01:13:05.420Z,14.72
2023-05-10T01:15:34.324Z,14.76
2023-05-10T01:18:01.450Z,14.56
2023-05-10T01:20:31.458Z,14.62
2023-05-10T01:23:07.319Z,14.56
2023-05-10T01:25:52.796Z,14.82
2023-05-10T01:28:36.257Z,14.75
2023-05-10T01:31:09.101Z,14.40
2023-05-10T01:34:00.009Z,14.68
2023-05-10T01:36:27.269Z,14.53
2023-05-10T01:39:03.573Z,14.60
2023-05-10T01:41:49.145Z,14.43
2023-05-10T01:44:21.748Z,14.46
2023-05-10T01:46:58.552Z,14.22
2023-05-10T01:49:27.613Z,14.37
2023-05-10T01:51:55.879Z,14.30
2023-05-10T01:54:23.539Z,14.57
2023-05-10T01:56:53.649Z,14.50
2023-05-10T01:59:21.012Z,14.51
2023-05-10T02:01:51.059Z,14.59
2023-05-10T02:04:18.414Z,14.45
2023-05-10T02:06:47.513Z,14.45
2023-05-10T02:09:15.295Z,14.47
2023-05-10T02:11:43.903Z,14.31
2023-05-10T02:14:12.236Z,14.58
2023-05-10T02:16:39.969Z,14.35
2023-05-10T02:19:09.524Z,14.37
2023-05-10T02:21:36.968Z,14.39
2023-05-10T02:24:07.538Z,14.39
2023-05-10T02:26:35.351Z,13.98
2023-05-10T02:29:04.488Z,14.10
2023-05-10T02:31:33.208Z,14.28
2023-05-10T02:34:01.115Z,14.25
2023-05-10T02:36:28.764Z,14.11
2023-05-10T02:38:56.139Z,14.17
2023-05-10T02:41:24.145Z,14.19
2023-05-10T02:43:51.903Z,13.99
2023-05-10T02:46:23.913Z,13.93
2023-05-10T02:48:50.723Z,13.89
2023-05-10T02:51:19.279Z,14.09
2023-05-10T02:53:47.834Z,14.17
2023-05-10T02:56:24.685Z,14.37
2023-05-10T02:58:54.360Z,14.28
2023-05-10T03:01:20.990Z,14.23
2023-05-10T03:03:47.698Z,14.33
2023-05-10T03:06:14.385Z,14.35
2023-05-10T03:08:41.042Z,14.17
2023-05-10T03:11:31.254Z,14.40
2023-05-10T03:14:18.184Z,14.30
2023-05-10T03:16:49.331Z,14.34
2023-05-10T03:19:27.443Z,14.18
2023-05-10T03:21:56.980Z,14.36
2023-05-10T03:24:25.223Z,14.29
2023-05-10T03:26:54.929Z,14.40
2023-05-10T03:29:22.904Z,14.31
2023-05-10T03:31:49.580Z,14.20
2023-05-10T03:34:16.551Z,14.33
2023-05-10T03:36:43.244Z,14.21
2023-05-10T03:39:11.144Z,14.25
2023-05-10T03:41:37.837Z,14.19
2023-05-10T03:44:04.702Z,14.11
2023-05-10T03:46:32.171Z,14.20
2023-05-10T03:48:59.005Z,14.36
2023-05-10T03:51:29.031Z,14.38
2023-05-10T03:53:58.548Z,14.33
2023-05-10T03:56:25.846Z,14.35
2023-05-10T03:58:52.403Z,14.26
2023-05-10T04:01:19.008Z,14.35
2023-05-10T04:03:54.209Z,14.34
2023-05-10T04:06:21.145Z,14.32
2023-05-10T04:08:50.732Z,14.54
2023-05-10T04:11:18.096Z,14.66
2023-05-10T04:13:44.664Z,14.58
2023-05-10T04:16:11.310Z,14.49
2023-05-10T04:18:37.864Z,14.47
2023-05-10T04:21:04.602Z,14.41
2023-05-10T04:23:31.115Z,14.35
2023-05-10T04:26:01.591Z,14.24
2023-05-10T04:28:28.365Z,14.39
2023-05-10T04:31:01.338Z,14.64
2023-05-10T04:33:31.597Z,14.62
2023-05-10T04:35:58.320Z,14.58
2023-05-10T04:38:25.592Z,14.60
2023-05-10T04:40:52.300Z,14.77
2023-05-10T04:43:18.799Z,14.83
2023-05-10T04:45:45.392Z,14.95
2023-05-10T04:48:12.395Z,15.00
2023-05-10T04:50:39.957Z,15.01
2023-05-10T04:53:06.592Z,15.21
2023-05-10T04:55:38.975Z,15.27
2023-05-10T04:58:05.523Z,15.64
2023-05-10T05:00:32.038Z,15.72
2023-05-10T05:02:58.766Z,15.53
2023-05-10T05:05:25.457Z,15.69
2023-05-10T05:07:52.045Z,15.89
2023-05-10T05:10:18.935Z,15.88
2023-05-10T05:12:45.772Z,16.09
2023-05-10T05:15:12.645Z,16.15
2023-05-10T05:17:39.364Z,16.10
2023-05-10T05:20:11.661Z,16.29
2023-05-10T05:22:38.625Z,16.31
2023-05-10T05:25:05.542Z,16.47
2023-05-10T05:27:32.203Z,16.16
2023-05-10T05:30:01.463Z,16.06
2023-05-10T05:32:28.114Z,16.42
2023-05-10T05:34:54.636Z,16.51
2023-05-10T05:37:25.519Z,16.15
2023-05-10T05:39:52.208Z,15.86
2023-05-10T05:42:19.792Z,16.06
2023-05-10T05:44:46.694Z,16.04
2023-05-10T05:47:13.324Z,16.00
2023-05-10T05:49:40.398Z,15.92
2023-05-10T05:52:06.919Z,16.03
2023-05-10T05:54:36.539Z,16.09
2023-05-10T05:57:03.177Z,15.95
2023-05-10T05:59:29.831Z,15.85
2023-05-10T06:01:56.448Z,15.76
2023-05-10T06:04:23.335Z,15.95
2023-05-10T06:06:49.953Z,15.86
2023-05-10T06:09:16.993Z,16.07
2023-05-10T06:11:43.896Z,16.00
2023-05-10T06:14:12.729Z,15.89
2023-05-10T06:16:39.296Z,16.02
2023-05-10T06:19:05.938Z,16.07
2023-05-10T06:21:32.861Z,16.05
2023-05-10T06:23:59.519Z,16.16
2023-05-10T06:26:26.051Z,16.30
2023-05-10T06:28:55.216Z,16.45
2023-05-10T06:31:22.120Z,16.17
2023-05-10T06:33:48.777Z,16.09
2023-05-10T06:36:15.509Z,16.07
2023-05-10T06:38:44.446Z,16.29
2023-05-10T06:41:11.153Z,16.26
2023-05-10T06:43:40.945Z,16.23
2023-05-10T06:46:08.353Z,16.16
2023-05-10T06:48:37.196Z,16.59
2023-05-10T06:51:03.841Z,16.35
2023-05-10T06:53:30.916Z,16.48
2023-05-10T06:55:57.563Z,16.24
2023-05-10T06:58:24.385Z,16.33
2023-05-10T07:00:53.281Z,16.52
2023-05-10T07:03:19.904Z,16.49
2023-05-10T07:05:46.511Z,16.76
2023-05-10T07:08:14.428Z,16.72
2023-05-10T07:10:41.043Z,16.75
2023-05-10T07:13:07.937Z,16.52
2023-05-10T07:15:34.653Z,16.90
2023-05-10T07:18:04.240Z,17.05
2023-05-10T07:20:30.992Z,17.03
2023-05-10T07:22:58.146Z,16.76
2023-05-10T07:25:25.208Z,16.94
2023-05-10T07:27:52.024Z,17.20
2023-05-10T07:30:18.688Z,17.33
2023-05-10T07:32:48.409Z,17.25
2023-05-10T07:35:15.449Z,17.30
2023-05-10T07:37:44.574Z,17.48
2023-05-10T07:40:11.305Z,17.26
2023-05-10T07:42:38.023Z,17.44
2023-05-10T07:45:05.047Z,17.65
2023-05-10T07:47:31.594Z,17.76
2023-05-10T07:49:58.326Z,17.97
2023-05-10T07:52:27.983Z,18.09
2023-05-10T07:54:54.669Z,17.92
2023-05-10T07:57:21.754Z,18.47
2023-05-10T07:59:48.571Z,18.58
2023-05-10T08:02:17.725Z,18.59
2023-05-10T08:04:45.592Z,18.64
2023-05-10T08:07:12.334Z,18.67
2023-05-10T08:09:38.933Z,18.89
2023-05-10T08:12:05.657Z,19.06
2023-05-10T08:14:32.344Z,19.42
2023-05-10T08:16:58.935Z,19.15
2023-05-10T08:19:30.940Z,19.33
2023-05-10T08:21:58.241Z,19.40
2023-05-10T08:24:30.170Z,19.30
2023-05-10T08:26:56.830Z,19.36
2023-05-10T08:29:23.473Z,19.50
2023-05-10T08:31:50.439Z,19.60
2023-05-10T08:34:19.727Z,19.55
2023-05-10T08:36:46.437Z,19.61
2023-05-10T08:39:22.934Z,19.50
2023-05-10T08:42:00.140Z,19.12
2023-05-10T08:44:26.850Z,19.02
2023-05-10T08:46:54.750Z,18.73
2023-05-10T08:49:21.899Z,18.90
2023-05-10T08:51:52.028Z,18.80
2023-05-10T08:54:20.806Z,18.48
2023-05-10T08:56:49.744Z,18.83
2023-05-10T08:59:16.998Z,18.75
2023-05-10T09:01:45.085Z,19.01
2023-05-10T09:04:13.097Z,18.86
2023-05-10T09:06:42.746Z,18.63
2023-05-10T09:09:09.720Z,18.68
2023-05-10T09:11:38.479Z,18.49
2023-05-10T09:14:05.362Z,18.64
2023-05-10T09:16:31.944Z,18.37
2023-05-10T09:18:58.701Z,18.32
2023-05-10T09:21:25.877Z,18.15
2023-05-10T09:23:55.145Z,18.08
2023-05-10T09:26:24.702Z,18.21
2023-05-10T09:29:01.003Z,18.28
2023-05-10T09:31:55.511Z,18.40
2023-05-10T09:34:30.720Z,18.06
2023-05-10T09:36:58.853Z,18.18
2023-05-10T09:39:32.499Z,17.60
2023-05-10T09:42:00.373Z,18.21
2023-05-10T09:44:27.140Z,18.10
2023-05-10T09:46:53.836Z,18.27
2023-05-10T09:49:22.314Z,18.08
2023-05-10T09:51:48.932Z,17.98
2023-05-10T09:54:16.918Z,18.20
2023-05-10T09:56:43.599Z,17.96
2023-05-10T09:59:20.864Z,18.01
2023-05-10T10:02:01.340Z,18.36
2023-05-10T10:04:28.514Z,18.13
2023-05-10T10:07:02.844Z,17.91
2023-05-10T10:09:29.480Z,18.16
2023-05-10T10:11:56.807Z,18.46
2023-05-10T10:14:24.888Z,18.76
2023-05-10T10:17:06.706Z,18.09
2023-05-10T10:19:36.741Z,17.87
2023-05-10T10:22:04.001Z,18.53
2023-05-10T10:24:30.820Z,18.33
2023-05-10T10:27:20.440Z,18.72
2023-05-10T10:30:03.076Z,18.53
2023-05-10T10:32:43.629Z,18.29
2023-05-10T10:35:10.818Z,18.14
2023-05-10T10:37:47.651Z,18.43
2023-05-10T10:40:33.637Z,18.40
2023-05-10T10:43:20.229Z,18.63
2023-05-10T10:46:08.870Z,17.86
2023-05-10T10:48:35.501Z,18.20
2023-05-10T10:51:02.105Z,17.81
2023-05-10T10:53:31.629Z,18.13
2023-05-10T10:56:11.199Z,18.02
2023-05-10T10:58:38.948Z,17.67
2023-05-10T11:01:16.437Z,17.40
2023-05-10T11:03:56.597Z,17.48
2023-05-10T11:06:30.189Z,17.40
2023-05-10T11:08:56.899Z,17.43
2023-05-10T11:11:23.537Z,17.76
2023-05-10T11:13:53.333Z,17.94
2023-05-10T11:16:29.746Z,18.13
2023-05-10T11:19:03.245Z,17.76
2023-05-10T11:21:33.741Z,17.70
2023-05-10T11:24:01.198Z,17.71
2023-05-10T11:26:35.510Z,17.71
2023-05-10T11:29:03.335Z,17.65
2023-05-10T11:31:30.372Z,17.72
2023-05-10T11:34:02.724Z,17.58
2023-05-10T11:36:30.474Z,17.43
2023-05-10T11:38:57.705Z,17.74
2023-05-10T11:41:25.503Z,17.87
2023-05-10T11:43:52.845Z,18.07
2023-05-10T11:46:21.392Z,18.06
2023-05-10T11:48:50.960Z,17.96
2023-05-10T11:51:21.578Z,18.05
2023-05-10T11:53:48.739Z,18.03
2023-05-10T11:56:15.389Z,17.93
2023-05-10T11:58:44.414Z,17.99
2023-05-10T12:01:11.728Z,17.67
2023-05-10T12:03:45.510Z,17.90
2023-05-10T12:06:12.567Z,18.07
2023-05-10T12:08:45.235Z,17.83
2023-05-10T12:11:13.513Z,17.53
2023-05-10T12:13:43.968Z,17.34
2023-05-10T12:16:18.146Z,17.41
2023-05-10T12:18:45.557Z,17.56
2023-05-10T12:21:15.451Z,17.67
2023-05-10T12:23:42.439Z,17.30
2023-05-10T12:26:11.836Z,17.14
2023-05-10T12:28:39.408Z,17.26
2023-05-10T12:31:06.822Z,17.21
2023-05-10T12:33:38.097Z,17.47
2023-05-10T12:36:04.847Z,17.47
2023-05-10T12:38:39.047Z,17.55
2023-05-10T12:41:09.028Z,17.21
2023-05-10T12:43:36.008Z,17.40
2023-05-10T12:46:20.902Z,17.56
2023-05-10T12:48:55.186Z,17.58
2023-05-10T12:51:26.898Z,17.68
2023-05-10T12:53:56.022Z,17.47
2023-05-10T12:56:23.514Z,17.76
2023-05-10T12:58:52.296Z,18.23
2023-05-10T13:01:18.947Z,18.17
2023-05-10T13:03:46.535Z,18.04
2023-05-10T13:06:21.637Z,18.03
2023-05-10T13:08:48.212Z,18.09
2023-05-10T13:11:17.632Z,18.64
2023-05-10T13:13:44.283Z,18.41
2023-05-10T13:16:10.976Z,18.86
2023-05-10T13:18:37.607Z,19.24
2023-05-10T13:21:06.889Z,19.35
2023-05-10T13:23:35.074Z,19.55
2023-05-10T13:26:01.636Z,19.52
2023-05-10T13:28:31.212Z,19.57
2023-05-10T13:30:57.920Z,19.37
2023-05-10T13:33:24.612Z,19.58
2023-05-10T13:35:51.533Z,19.56
2023-05-10T13:38:21.729Z,19.42
2023-05-10T13:40:49.212Z,19.42
2023-05-10T13:43:16.262Z,19.38
2023-05-10T13:45:42.877Z,19.50
2023-05-10T13:48:09.611Z,19.89
2023-05-10T13:50:36.262Z,20.04
2023-05-10T13:53:04.097Z,20.27
2023-05-10T13:55:33.793Z,20.14
2023-05-10T13:58:00.400Z,19.92
2023-05-10T14:00:27.866Z,20.04
2023-05-10T14:02:54.905Z,19.85
2023-05-10T14:05:25.532Z,20.35
2023-05-10T14:07:53.613Z,20.44
2023-05-10T14:10:20.190Z,20.55
2023-05-10T14:12:47.041Z,20.43
2023-05-10T14:15:13.692Z,20.23
2023-05-10T14:17:40.460Z,20.10
2023-05-10T14:20:07.400Z,20.60
2023-05-10T14:22:33.983Z,20.73
2023-05-10T14:25:00.765Z,20.64
2023-05-10T14:27:27.540Z,21.03
2023-05-10T14:29:54.603Z,21.17
2023-05-10T14:32:21.249Z,21.53
2023-05-10T14:34:47.799Z,21.82
2023-05-10T14:37:15.276Z,22.11
2023-05-10T14:39:43.428Z,22.33
2023-05-10T14:42:10.047Z,22.00
2023-05-10T14:44:36.565Z,22.65
2023-05-10T14:47:03.471Z,22.39
2023-05-10T14:49:30.220Z,23.11
2023-05-10T14:51:56.891Z,22.82
2023-05-10T14:54:23.819Z,22.29
2023-05-10T14:56:51.034Z,22.13
2023-05-10T14:59:19.313Z,21.16
2023-05-10T15:01:46.680Z,21.64
2023-05-10T15:04:14.522Z,21.47
2023-05-10T15:06:42.240Z,21.55
2023-05-10T15:09:08.805Z,21.55
2023-05-10T15:11:35.676Z,20.73
2023-05-10T15:14:03.123Z,21.36
2023-05-10T15:16:29.815Z,21.47
2023-05-10T15:18:56.443Z,21.68
2023-05-10T15:21:23.098Z,21.47
2023-05-10T15:23:49.916Z,21.09
2023-05-10T15:26:16.502Z,21.25
2023-05-10T15:28:43.073Z,21.15
2023-05-10T15:31:09.795Z,20.99
2023-05-10T15:33:38.145Z,20.96
2023-05-10T15:36:05.898Z,20.90
2023-05-10T15:38:36.012Z,20.86
2023-05-10T15:41:02.660Z,20.57
2023-05-10T15:43:29.338Z,20.67
2023-05-10T15:45:55.973Z,20.62
2023-05-10T15:48:22.665Z,20.77
2023-05-10T15:50:49.289Z,20.88
2023-05-10T15:53:15.877Z,20.37
2023-05-10T15:55:42.488Z,20.72
2023-05-10T15:58:09.092Z,20.52
2023-05-10T16:00:35.788Z,20.44
2023-05-10T16:03:02.536Z,20.18
2023-05-10T16:05:32.646Z,20.26
2023-05-10T16:07:59.765Z,20.30
2023-05-10T16:10:26.403Z,20.59
2023-05-10T16:12:55.963Z,20.60
2023-05-10T16:15:22.796Z,20.48
2023-05-10T16:17:49.625Z,20.43
2023-05-10T16:20:16.597Z,20.99
2023-05-10T16:22:44.490Z,20.80
2023-05-10T16:25:13.345Z,20.69
2023-05-10T16:27:41.063Z,20.51
2023-05-10T16:30:07.958Z,20.59
2023-05-10T16:32:35.109Z,20.91
2023-05-10T16:35:01.722Z,20.84
2023-05-10T16:37:28.585Z,20.87
2023-05-10T16:39:55.126Z,20.77
2023-05-10T16:42:21.747Z,20.92
2023-05-10T16:44:48.334Z,20.80
2023-05-10T16:47:14.953Z,20.79
2023-05-10T16:49:41.613Z,20.79
2023-05-10T16:52:08.441Z,20.71
2023-05-10T16:54:35.028Z,20.55
2023-05-10T16:57:02.201Z,20.58
2023-05-10T16:59:28.776Z,20.55
2023-05-10T17:01:55.826Z,20.57
2023-05-10T17:04:23.849Z,20.41
2023-05-10T17:06:50.601Z,20.48
2023-05-10T17:09:17.145Z,20.56
2023-05-10T17:11:43.733Z,20.57
2023-05-10T17:14:10.435Z,20.36
2023-05-10T17:16:37.145Z,20.36
2023-05-10T17:19:03.841Z,20.25
2023-05-10T17:21:31.916Z,20.28
2023-05-10T17:23:58.550Z,20.26
2023-05-10T17:26:30.124Z,20.12
2023-05-10T17:28:57.009Z,20.25
2023-05-10T17:31:23.557Z,20.29
2023-05-10T17:33:50.285Z,20.23
2023-05-10T17:36:16.951Z,19.89
2023-05-10T17:38:43.545Z,19.92
2023-05-10T17:41:10.193Z,19.92
2023-05-10T17:43:36.894Z,19.97
2023-05-10T17:46:03.766Z,20.19
2023-05-10T17:48:31.026Z,20.36
2023-05-10T17:50:57.726Z,20.01
2023-05-10T17:53:24.373Z,19.89
2023-05-10T17:55:51.574Z,19.75
2023-05-10T17:58:20.559Z,19.73
2023-05-10T18:00:48.098Z,19.53
2023-05-10T18:03:14.752Z,19.58
2023-05-10T18:05:41.404Z,19.42
2023-05-10T18:08:08.612Z,19.42
2023-05-10T18:10:36.145Z,19.46
2023-05-10T18:13:06.933Z,19.27
2023-05-10T18:15:35.284Z,19.61
2023-05-10T18:18:02.204Z,19.39
2023-05-10T18:20:28.913Z,19.41
2023-05-10T18:22:55.860Z,19.29
2023-05-10T18:25:22.451Z,19.16
2023-05-10T18:27:49.267Z,19.16
2023-05-10T18:30:16.033Z,18.91
2023-05-10T18:32:42.973Z,18.87
2023-05-10T18:35:09.884Z,18.78
2023-05-10T18:37:36.872Z,18.91
2023-05-10T18:40:05.003Z,18.71
2023-05-10T18:42:31.846Z,18.73
2023-05-10T18:44:58.450Z,18.64
2023-05-10T18:47:26.754Z,18.37
2023-05-10T18:49:53.859Z,18.39
2023-05-10T18:52:20.457Z,18.41
2023-05-10T18:54:47.090Z,18.29
2023-05-10T18:57:13.935Z,18.34
2023-05-10T18:59:40.523Z,18.30
2023-05-10T19:02:07.741Z,18.31
2023-05-10T19:04:36.810Z,18.25
2023-05-10T19:07:03.604Z,18.27
2023-05-10T19:09:30.248Z,18.60
2023-05-10T19:11:56.886Z,18.36
2023-05-10T19:14:25.419Z,18.34
2023-05-10T19:16:52.567Z,18.21
2023-05-10T19:19:21.455Z,18.07
2023-05-10T19:21:49.008Z,17.85
2023-05-10T19:24:15.694Z,17.92
2023-05-10T19:26:42.462Z,17.85
2023-05-10T19:29:09.458Z,17.88
2023-05-10T19:31:36.103Z,17.70
2023-05-10T19:34:05.912Z,17.83
2023-05-10T19:36:32.627Z,17.32
2023-05-10T19:38:59.253Z,17.42
2023-05-10T19:41:28.279Z,17.19
2023-05-10T19:43:54.879Z,17.01
2023-05-10T19:46:21.709Z,17.05
2023-05-10T19:48:51.158Z,17.33
2023-05-10T19:51:17.952Z,17.31
2023-05-10T19:53:44.883Z,17.23
2023-05-10T19:56:12.809Z,17.43
2023-05-10T19:58:40.357Z,17.35
2023-05-10T20:01:08.671Z,17.34
2023-05-10T20:03:36.807Z,17.16
2023-05-10T20:06:04.064Z,17.21
2023-05-10T20:08:31.071Z,17.11
2023-05-10T20:10:59.183Z,17.20
2023-05-10T20:13:25.892Z,17.19
2023-05-10T20:15:55.312Z,17.08
2023-05-10T20:18:22.589Z,16.64
2023-05-10T20:20:53.090Z,16.74
2023-05-10T20:23:19.805Z,16.94
2023-05-10T20:25:46.391Z,16.76
2023-05-10T20:28:13.231Z,16.50
2023-05-10T20:30:39.834Z,16.57
2023-05-10T20:33:06.573Z,16.72
2023-05-10T20:35:34.706Z,16.68
2023-05-10T20:38:02.436Z,16.67
2023-05-10T20:40:29.050Z,16.47
2023-05-10T20:42:55.820Z,16.42
2023-05-10T20:45:23.435Z,16.66
2023-05-10T20:47:50.321Z,16.58
2023-05-10T20:50:17.135Z,16.58
2023-05-10T20:52:44.521Z,16.37
2023-05-10T20:55:11.133Z,16.27
2023-05-10T20:57:37.854Z,16.54
2023-05-10T21:00:05.640Z,16.92
2023-05-10T21:02:32.404Z,16.86
2023-05-10T21:04:59.511Z,16.24
2023-05-10T21:07:26.243Z,15.86
2023-05-10T21:09:52.851Z,16.02
2023-05-10T21:12:19.544Z,16.04
2023-05-10T21:14:47.759Z,16.09
2023-05-10T21:17:14.651Z,16.00
2023-05-10T21:19:41.231Z,15.78
2023-05-10T21:22:07.909Z,15.92
2023-05-10T21:24:35.256Z,15.69
2023-05-10T21:27:02.881Z,15.68
2023-05-10T21:29:29.444Z,15.66
2023-05-10T21:31:58.554Z,15.82
2023-05-10T21:34:25.191Z,16.11
2023-05-10T21:36:51.811Z,16.20
2023-05-10T21:39:18.392Z,16.24
2023-05-10T21:41:45.051Z,16.33
2023-05-10T21:44:11.595Z,16.34
2023-05-10T21:46:38.218Z,16.14
2023-05-10T21:49:05.094Z,15.94
2023-05-10T21:51:31.731Z,15.92
2023-05-10T21:53:58.541Z,15.62
2023-05-10T21:56:25.141Z,15.32
2023-05-10T21:58:52.089Z,15.51
2023-05-10T22:01:19.035Z,15.22
2023-05-10T22:03:46.699Z,15.26
2023-05-10T22:06:13.312Z,15.29
2023-05-10T22:08:39.856Z,15.18
2023-05-10T22:11:06.441Z,15.23
2023-05-10T22:13:32.989Z,15.28
2023-05-10T22:15:59.588Z,15.24
2023-05-10T22:18:26.217Z,15.39
2023-05-10T22:20:52.837Z,15.37
2023-05-10T22:23:19.419Z,15.33
2023-05-10T22:25:46.012Z,14.89
2023-05-10T22:28:12.805Z,14.77
2023-05-10T22:30:39.437Z,14.98
2023-05-10T22:33:06.540Z,14.84
2023-05-10T22:35:33.233Z,15.07
2023-05-10T22:37:59.824Z,14.64
2023-05-10T22:40:26.504Z,14.69
2023-05-10T22:42:53.101Z,14.88
2023-05-10T22:45:19.697Z,15.18
2023-05-10T22:47:47.312Z,15.39
2023-05-10T22:50:14.384Z,15.87
2023-05-10T22:52:41.748Z,15.90
2023-05-10T22:55:08.552Z,15.92
2023-05-10T22:57:35.440Z,15.54
2023-05-10T23:00:03.652Z,15.42
2023-05-10T23:02:30.554Z,15.36
2023-05-10T23:04:57.205Z,15.74
2023-05-10T23:07:24.137Z,15.78
2023-05-10T23:09:51.000Z,15.92
2023-05-10T23:12:17.759Z,16.08
2023-05-10T23:14:46.556Z,15.99
2023-05-10T23:17:13.767Z,15.76
2023-05-10T23:19:40.451Z,16.02
2023-05-10T23:22:07.105Z,16.04
2023-05-10T23:24:33.674Z,15.72
2023-05-10T23:27:00.219Z,15.75
2023-05-10T23:29:26.843Z,15.66
2023-05-10T23:31:53.533Z,15.55
2023-05-10T23:34:20.190Z,15.77
2023-05-10T23:36:46.858Z,15.54
2023-05-10T23:39:13.563Z,15.31
2023-05-10T23:41:42.762Z,15.22
2023-05-10T23:44:09.376Z,15.62
2023-05-10T23:46:36.173Z,16.06
2023-05-10T23:49:02.764Z,15.98
2023-05-10T23:51:29.333Z,16.03
2023-05-10T23:53:55.991Z,16.21
2023-05-10T23:56:22.525Z,16.41
2023-05-10T23:58:49.191Z,16.41
